createdAt,value
2018-06-13T00:01:34.611Z,4.20
2018-06-13T00:04:03.830Z,5.33
2018-06-13T00:06:33.059Z,5.27
2018-06-13T00:09:02.846Z,5.90
2018-06-13T00:11:32.050Z,7.20
2018-06-13T00:14:01.259Z,4.93
2018-06-13T00:16:30.493Z,7.97
2018-06-13T00:18:59.707Z,6.77
2018-06-13T00:21:28.954Z,9.27
2018-06-13T00:23:58.245Z,8.40
2018-06-13T00:26:27.575Z,6.83
2018-06-13T00:28:56.806Z,7.37
2018-06-13T00:31:26.062Z,5.93
2018-06-13T00:33:58.379Z,5.60
2018-06-13T00:36:27.603Z,6.13
2018-06-13T00:38:56.815Z,5.07
2018-06-13T00:41:26.039Z,5.73
2018-06-13T00:43:55.270Z,6.83
2018-06-13T00:46:24.491Z,7.20
2018-06-13T00:48:53.746Z,7.23
2018-06-13T00:51:22.974Z,6.90
2018-06-13T00:53:52.203Z,8.27
2018-06-13T00:56:29.046Z,7.37
2018-06-13T00:58:58.346Z,8.67
2018-06-13T01:01:27.574Z,12.03
2018-06-13T01:03:56.786Z,7.80
2018-06-13T01:06:26.028Z,6.80
2018-06-13T01:08:55.288Z,7.72
2018-06-13T01:11:24.517Z,7.60
2018-06-13T01:13:53.765Z,7.07
2018-06-13T01:16:22.973Z,6.77
2018-06-13T01:18:52.275Z,7.43
2018-06-13T01:21:21.477Z,9.27
2018-06-13T01:23:50.779Z,8.93
2018-06-13T01:26:22.888Z,8.67
2018-06-13T01:28:52.144Z,12.70
2018-06-13T01:31:52.685Z,8.80
2018-06-13T01:34:21.968Z,7.80
2018-06-13T01:36:51.174Z,7.23
2018-06-13T01:39:20.418Z,9.83
2018-06-13T01:41:49.642Z,11.27
2018-06-13T01:44:18.881Z,8.63
2018-06-13T01:46:48.099Z,12.00
2018-06-13T01:49:17.327Z,11.87
2018-06-13T01:51:46.539Z,8.83
2018-06-13T01:54:15.791Z,10.70
2018-06-13T01:56:44.994Z,11.83
2018-06-13T01:59:14.222Z,11.03
2018-06-13T02:01:43.438Z,10.00
2018-06-13T02:04:12.663Z,8.98
2018-06-13T02:06:41.885Z,10.00
2018-06-13T02:09:11.263Z,10.43
2018-06-13T02:11:40.527Z,9.60
2018-06-13T02:14:09.743Z,8.80
2018-06-13T02:16:38.958Z,12.40
2018-06-13T02:19:08.201Z,12.82
2018-06-13T02:21:37.542Z,10.07
2018-06-13T02:24:06.959Z,10.47
2018-06-13T02:26:36.167Z,8.83
2018-06-13T02:29:05.486Z,8.58
2018-06-13T02:31:34.742Z,11.97
2018-06-13T02:34:03.978Z,8.90
2018-06-13T02:36:33.199Z,9.27
2018-06-13T02:39:02.464Z,12.57
2018-06-13T02:41:31.678Z,11.77
2018-06-13T02:44:00.908Z,10.23
2018-06-13T02:46:30.126Z,9.20
2018-06-13T02:48:59.383Z,9.43
2018-06-13T02:51:28.611Z,9.00
2018-06-13T02:53:57.839Z,9.83
2018-06-13T02:56:27.055Z,10.60
2018-06-13T02:58:56.366Z,9.70
2018-06-13T03:01:25.575Z,10.47
2018-06-13T03:03:54.902Z,12.90
2018-06-13T03:06:24.126Z,13.70
2018-06-13T03:08:53.485Z,10.13
2018-06-13T03:11:22.796Z,10.80
2018-06-13T03:13:51.990Z,8.43
2018-06-13T03:16:21.223Z,8.80
2018-06-13T03:18:50.447Z,6.93
2018-06-13T03:21:19.688Z,7.43
2018-06-13T03:23:48.923Z,9.83
2018-06-13T03:26:18.213Z,11.37
2018-06-13T03:28:47.500Z,9.27
2018-06-13T03:31:16.815Z,9.60
2018-06-13T03:33:46.032Z,9.50
2018-06-13T03:36:15.232Z,9.53
2018-06-13T03:38:44.489Z,8.70
2018-06-13T03:41:13.715Z,9.43
2018-06-13T03:43:42.934Z,10.23
2018-06-13T03:46:12.175Z,8.03
2018-06-13T03:48:41.404Z,9.63
2018-06-13T03:51:10.643Z,11.47
2018-06-13T03:53:39.874Z,10.57
2018-06-13T03:56:09.274Z,10.97
2018-06-13T03:58:38.535Z,11.77
2018-06-13T04:01:07.793Z,10.00
2018-06-13T04:03:37.079Z,10.78
2018-06-13T04:06:06.329Z,11.33
2018-06-13T04:08:35.570Z,13.03
2018-06-13T04:11:04.798Z,11.03
2018-06-13T04:13:34.035Z,12.50
2018-06-13T04:16:03.278Z,11.17
2018-06-13T04:18:32.508Z,11.87
2018-06-13T04:21:01.752Z,11.65
2018-06-13T04:23:30.989Z,13.30
2018-06-13T04:26:00.229Z,11.23
2018-06-13T04:28:29.492Z,11.00
2018-06-13T04:30:58.788Z,9.77
2018-06-13T04:33:28.001Z,10.60
2018-06-13T04:35:57.236Z,10.27
2018-06-13T04:38:26.466Z,9.43
2018-06-13T04:40:55.710Z,11.27
2018-06-13T04:43:24.918Z,12.40
2018-06-13T04:45:54.207Z,11.80
2018-06-13T04:48:23.451Z,13.33
2018-06-13T04:50:52.683Z,11.20
2018-06-13T04:53:21.903Z,9.00
2018-06-13T04:55:51.130Z,6.10
2018-06-13T04:58:20.370Z,5.97
2018-06-13T05:00:49.558Z,4.00
2018-06-13T05:03:18.798Z,4.03
2018-06-13T05:05:48.027Z,3.67
2018-06-13T05:08:17.242Z,3.27
2018-06-13T05:10:46.485Z,3.20
2018-06-13T05:13:15.700Z,3.43
2018-06-13T05:15:44.916Z,3.80
2018-06-13T05:18:14.195Z,4.40
2018-06-13T05:20:43.534Z,5.00
2018-06-13T05:23:12.745Z,5.40
2018-06-13T05:25:42.093Z,5.83
2018-06-13T05:28:11.342Z,6.50
2018-06-13T05:30:40.599Z,7.30
2018-06-13T05:33:09.842Z,7.73
2018-06-13T05:35:39.126Z,8.13
2018-06-13T05:38:08.372Z,7.45
2018-06-13T05:40:37.643Z,7.20
2018-06-13T05:43:06.865Z,6.67
2018-06-13T05:45:36.099Z,8.00
2018-06-13T05:48:05.460Z,8.13
2018-06-13T05:50:34.686Z,8.50
2018-06-13T05:53:03.924Z,8.33
2018-06-13T05:55:33.164Z,8.70
2018-06-13T05:58:02.393Z,8.90
2018-06-13T06:00:31.593Z,7.53
2018-06-13T06:03:01.005Z,7.40
2018-06-13T06:05:30.213Z,7.73
2018-06-13T06:07:59.461Z,8.70
2018-06-13T06:10:28.734Z,9.07
2018-06-13T06:12:57.939Z,8.63
2018-06-13T06:15:27.139Z,8.83
2018-06-13T06:17:56.374Z,8.43
2018-06-13T06:20:25.580Z,8.00
2018-06-13T06:22:55.235Z,8.43
2018-06-13T06:25:24.469Z,7.90
2018-06-13T06:27:53.672Z,7.17
2018-06-13T06:30:22.903Z,7.33
2018-06-13T06:32:52.157Z,6.97
2018-06-13T06:35:21.165Z,8.83
2018-06-13T06:37:50.407Z,6.57
2018-06-13T06:40:19.657Z,6.40
2018-06-13T06:42:48.879Z,7.00
2018-06-13T06:45:18.096Z,7.80
2018-06-13T06:47:47.397Z,7.35
2018-06-13T06:50:16.588Z,7.40
2018-06-13T06:52:45.819Z,6.93
2018-06-13T06:55:15.098Z,7.23
2018-06-13T06:57:44.282Z,7.20
2018-06-13T07:00:13.498Z,6.30
2018-06-13T07:02:42.957Z,6.80
2018-06-13T07:05:12.143Z,7.00
2018-06-13T07:07:41.360Z,7.03
2018-06-13T07:10:10.599Z,7.77
2018-06-13T07:12:39.816Z,6.63
2018-06-13T07:15:09.241Z,7.20
2018-06-13T07:17:38.467Z,7.20
2018-06-13T07:20:07.692Z,7.07
2018-06-13T07:22:36.935Z,6.40
2018-06-13T07:25:06.174Z,6.30
2018-06-13T07:27:35.435Z,6.23
2018-06-13T07:30:04.740Z,6.67
2018-06-13T07:32:34.018Z,6.57
2018-06-13T07:35:03.286Z,6.73
2018-06-13T07:37:32.498Z,6.60
2018-06-13T07:40:01.722Z,7.37
2018-06-13T07:42:30.946Z,6.70
2018-06-13T07:45:00.158Z,5.20
2018-06-13T07:47:29.438Z,4.50
2018-06-13T07:49:58.639Z,3.50
2018-06-13T07:52:27.899Z,4.13
2018-06-13T07:54:57.124Z,4.30
2018-06-13T07:57:32.986Z,3.70
2018-06-13T08:00:02.203Z,3.50
2018-06-13T08:02:31.550Z,3.30
2018-06-13T08:05:00.803Z,3.17
2018-06-13T08:07:30.011Z,3.90
2018-06-13T08:09:59.334Z,4.10
2018-06-13T08:12:28.547Z,4.60
2018-06-13T08:14:57.775Z,4.97
2018-06-13T08:17:27.072Z,4.80
2018-06-13T08:19:56.298Z,4.97
2018-06-13T08:22:25.589Z,5.73
2018-06-13T08:24:55.878Z,5.67
2018-06-13T08:27:25.099Z,5.20
2018-06-13T08:29:55.441Z,5.62
2018-06-13T08:32:24.735Z,5.60
2018-06-13T08:34:54.053Z,5.43
2018-06-13T08:37:23.270Z,5.72
2018-06-13T08:39:52.516Z,7.03
2018-06-13T08:42:21.718Z,8.03
2018-06-13T08:44:50.974Z,8.40
2018-06-13T08:47:20.294Z,10.60
2018-06-13T08:49:49.575Z,10.00
2018-06-13T08:52:18.782Z,8.83
2018-06-13T08:54:48.006Z,8.17
2018-06-13T08:57:17.222Z,8.93
2018-06-13T08:59:46.439Z,9.87
2018-06-13T09:02:15.678Z,10.60
2018-06-13T09:04:44.911Z,10.33
2018-06-13T09:07:14.142Z,11.73
2018-06-13T09:09:43.364Z,12.43
2018-06-13T09:12:12.599Z,12.60
2018-06-13T09:14:41.795Z,13.93
2018-06-13T09:17:11.018Z,12.67
2018-06-13T09:19:40.235Z,10.83
2018-06-13T09:22:09.511Z,12.37
2018-06-13T09:24:38.815Z,12.10
2018-06-13T09:27:08.109Z,11.43
2018-06-13T09:29:37.328Z,12.93
2018-06-13T09:32:06.542Z,13.40
2018-06-13T09:34:35.827Z,13.57
2018-06-13T09:37:05.040Z,16.03
2018-06-13T09:39:34.275Z,17.50
2018-06-13T09:42:03.297Z,19.80
2018-06-13T09:44:32.551Z,18.83
2018-06-13T09:47:06.904Z,20.70
2018-06-13T09:49:31.004Z,17.43
2018-06-13T09:52:00.215Z,18.30
2018-06-13T09:54:29.447Z,18.90
2018-06-13T09:56:58.651Z,21.27
2018-06-13T09:59:33.166Z,23.43
2018-06-13T10:02:07.557Z,22.27
2018-06-13T10:04:36.832Z,27.58
2018-06-13T10:07:06.068Z,24.30
2018-06-13T10:09:39.844Z,28.67
2018-06-13T10:12:13.481Z,25.57
2018-06-13T10:14:47.135Z,27.00
2018-06-13T10:17:20.682Z,24.93
2018-06-13T10:19:53.867Z,24.37
2018-06-13T10:22:23.074Z,25.83
2018-06-13T10:24:52.320Z,23.70
2018-06-13T10:27:26.804Z,22.23
2018-06-13T10:29:56.033Z,23.27
2018-06-13T10:32:25.229Z,24.37
2018-06-13T10:34:54.462Z,25.90
2018-06-13T10:37:23.495Z,25.97
2018-06-13T10:39:52.748Z,25.87
2018-06-13T10:42:22.030Z,29.57
2018-06-13T10:44:51.255Z,26.20
2018-06-13T10:47:20.500Z,26.20
2018-06-13T10:49:49.734Z,24.03
2018-06-13T10:52:18.951Z,27.30
2018-06-13T10:54:48.463Z,26.10
2018-06-13T10:57:17.808Z,28.43
2018-06-13T10:59:47.038Z,27.67
2018-06-13T11:02:16.268Z,26.67
2018-06-13T11:04:45.529Z,27.87
2018-06-13T11:07:14.505Z,29.73
2018-06-13T11:09:43.716Z,24.87
2018-06-13T11:12:12.970Z,23.60
2018-06-13T11:14:42.192Z,23.63
2018-06-13T11:17:11.545Z,23.23
2018-06-13T11:19:40.852Z,24.70
2018-06-13T11:22:10.075Z,24.30
2018-06-13T11:24:39.278Z,25.93
2018-06-13T11:27:08.504Z,30.77
2018-06-13T11:29:37.731Z,24.60
2018-06-13T11:32:07.066Z,25.83
2018-06-13T11:34:36.326Z,28.50
2018-06-13T11:37:05.934Z,27.20
2018-06-13T11:39:35.189Z,26.27
2018-06-13T11:42:04.483Z,22.70
2018-06-13T11:44:33.690Z,26.00
2018-06-13T11:47:03.078Z,26.73
2018-06-13T11:49:33.099Z,25.03
2018-06-13T11:52:03.812Z,25.80
2018-06-13T11:54:33.071Z,28.30
2018-06-13T11:57:02.553Z,37.50
2018-06-13T11:59:31.775Z,29.10
2018-06-13T12:02:00.988Z,25.50
2018-06-13T12:04:30.240Z,25.60
2018-06-13T12:06:59.443Z,19.67
2018-06-13T12:09:28.676Z,26.00
2018-06-13T12:11:57.935Z,26.33
2018-06-13T12:14:27.157Z,27.40
2018-06-13T12:16:56.399Z,32.67
2018-06-13T12:19:25.605Z,31.23
2018-06-13T12:21:54.826Z,33.77
2018-06-13T12:24:24.086Z,33.07
2018-06-13T12:26:53.354Z,36.87
2018-06-13T12:29:23.815Z,39.73
2018-06-13T12:31:53.072Z,37.60
2018-06-13T12:34:22.397Z,41.10
2018-06-13T12:36:51.595Z,33.70
2018-06-13T12:39:20.832Z,33.38
2018-06-13T12:41:50.119Z,32.93
2018-06-13T12:44:19.107Z,34.23
2018-06-13T12:46:48.387Z,33.30
2018-06-13T12:49:17.677Z,33.83
2018-06-13T12:51:46.998Z,31.63
2018-06-13T12:54:16.226Z,30.90
2018-06-13T12:56:45.358Z,30.23
2018-06-13T12:59:14.588Z,28.57
2018-06-13T13:01:43.786Z,26.57
2018-06-13T13:04:13.015Z,29.43
2018-06-13T13:06:42.243Z,32.03
2018-06-13T13:09:13.296Z,32.48
2018-06-13T13:11:43.091Z,30.43
2018-06-13T13:14:12.508Z,30.43
2018-06-13T13:16:41.491Z,30.00
2018-06-13T13:19:10.910Z,41.47
2018-06-13T13:21:40.149Z,35.23
2018-06-13T13:24:09.426Z,32.10
2018-06-13T13:26:38.663Z,43.33
2018-06-13T13:29:07.899Z,33.05
2018-06-13T13:31:37.100Z,31.70
2018-06-13T13:34:06.342Z,28.60
2018-06-13T13:36:35.588Z,31.93
2018-06-13T13:39:07.714Z,34.07
2018-06-13T13:41:38.222Z,46.73
2018-06-13T13:44:07.466Z,31.60
2018-06-13T13:46:36.680Z,35.60
2018-06-13T13:49:06.237Z,26.10
2018-06-13T13:51:35.512Z,25.33
2018-06-13T13:54:04.831Z,25.20
2018-06-13T13:56:33.983Z,26.50
2018-06-13T13:59:03.210Z,26.13
2018-06-13T14:01:32.476Z,28.73
2018-06-13T14:04:01.739Z,30.97
2018-06-13T14:06:30.955Z,31.27
2018-06-13T14:09:00.191Z,29.97
2018-06-13T14:11:29.419Z,29.27
2018-06-13T14:13:58.639Z,34.33
2018-06-13T14:16:27.858Z,29.17
2018-06-13T14:18:57.193Z,26.57
2018-06-13T14:21:26.430Z,26.13
2018-06-13T14:23:55.730Z,26.57
2018-06-13T14:26:25.063Z,28.33
2018-06-13T14:28:54.499Z,29.27
2018-06-13T14:31:23.743Z,29.80
2018-06-13T14:33:53.069Z,27.30
2018-06-13T14:36:22.307Z,30.77
2018-06-13T14:38:51.559Z,44.60
2018-06-13T14:41:20.782Z,29.73
2018-06-13T14:43:50.091Z,29.53
2018-06-13T14:46:19.386Z,24.63
2018-06-13T14:48:48.680Z,23.23
2018-06-13T14:51:17.978Z,26.67
2018-06-13T14:53:47.197Z,26.83
2018-06-13T14:56:21.678Z,29.60
2018-06-13T14:58:50.924Z,33.47
2018-06-13T15:01:20.160Z,29.43
2018-06-13T15:03:49.382Z,28.17
2018-06-13T15:06:18.666Z,28.37
2018-06-13T15:08:47.891Z,27.97
2018-06-13T15:11:17.132Z,26.53
2018-06-13T15:13:46.406Z,31.47
2018-06-13T15:16:15.697Z,28.50
2018-06-13T15:18:45.099Z,25.20
2018-06-13T15:21:14.425Z,28.43
2018-06-13T15:23:43.729Z,25.10
2018-06-13T15:26:13.093Z,27.47
2018-06-13T15:28:42.440Z,25.27
2018-06-13T15:31:12.983Z,24.03
2018-06-13T15:33:42.307Z,24.37
2018-06-13T15:36:11.526Z,23.03
2018-06-13T15:38:40.760Z,24.40
2018-06-13T15:41:09.991Z,26.60
2018-06-13T15:43:39.215Z,25.40
2018-06-13T15:46:08.439Z,29.60
2018-06-13T15:48:37.638Z,23.43
2018-06-13T15:51:06.869Z,25.63
2018-06-13T15:53:36.209Z,22.50
2018-06-13T15:56:05.951Z,25.43
2018-06-13T15:58:35.166Z,28.67
2018-06-13T16:01:04.394Z,26.83
2018-06-13T16:03:33.619Z,29.37
2018-06-13T16:06:02.941Z,27.30
2018-06-13T16:08:32.162Z,28.33
2018-06-13T16:11:01.430Z,23.30
2018-06-13T16:13:30.644Z,23.50
2018-06-13T16:15:59.871Z,20.00
2018-06-13T16:18:29.069Z,22.07
2018-06-13T16:20:58.323Z,19.47
2018-06-13T16:23:27.550Z,19.97
2018-06-13T16:25:56.782Z,20.60
2018-06-13T16:28:26.006Z,18.60
2018-06-13T16:30:55.251Z,23.57
2018-06-13T16:33:24.746Z,20.67
2018-06-13T16:35:54.035Z,19.73
2018-06-13T16:38:23.275Z,22.17
2018-06-13T16:40:52.530Z,20.97
2018-06-13T16:43:21.770Z,23.13
2018-06-13T16:45:51.077Z,22.23
2018-06-13T16:48:20.317Z,19.73
2018-06-13T16:51:06.445Z,18.57
2018-06-13T16:53:53.920Z,22.00
2018-06-13T16:56:23.258Z,19.80
2018-06-13T16:58:52.568Z,21.07
2018-06-13T17:01:22.681Z,20.47
2018-06-13T17:03:52.696Z,19.30
2018-06-13T17:06:21.979Z,20.10
2018-06-13T17:08:51.507Z,20.40
2018-06-13T17:11:20.845Z,19.90
2018-06-13T17:13:50.067Z,23.02
2018-06-13T17:16:19.294Z,18.47
2018-06-13T17:18:48.337Z,19.23
2018-06-13T17:21:17.558Z,20.60
2018-06-13T17:23:46.800Z,21.23
2018-06-13T17:26:16.022Z,26.27
2018-06-13T17:28:45.015Z,23.47
2018-06-13T17:31:14.250Z,20.57
2018-06-13T17:33:43.493Z,18.13
2018-06-13T17:36:12.778Z,21.53
2018-06-13T17:38:41.988Z,20.13
2018-06-13T17:41:11.552Z,20.43
2018-06-13T17:43:40.763Z,20.53
2018-06-13T17:46:10.010Z,21.47
2018-06-13T17:48:39.238Z,20.43
2018-06-13T17:51:08.474Z,20.90
2018-06-13T17:53:37.693Z,20.67
2018-06-13T17:56:06.924Z,22.73
2018-06-13T17:58:36.143Z,19.30
2018-06-13T18:01:05.384Z,21.30
2018-06-13T18:03:34.633Z,21.53
2018-06-13T18:06:03.856Z,21.37
2018-06-13T18:08:33.081Z,21.37
2018-06-13T18:11:02.312Z,22.00
2018-06-13T18:13:31.523Z,19.73
2018-06-13T18:16:00.735Z,19.77
2018-06-13T18:18:30.023Z,24.63
2018-06-13T18:20:59.247Z,21.43
2018-06-13T18:23:28.498Z,23.47
2018-06-13T18:25:57.715Z,23.43
2018-06-13T18:28:26.943Z,26.37
2018-06-13T18:30:56.151Z,28.63
2018-06-13T18:33:25.386Z,31.77
2018-06-13T18:35:54.594Z,29.77
2018-06-13T18:38:23.838Z,29.17
2018-06-13T18:40:53.050Z,28.67
2018-06-13T18:43:22.275Z,30.33
2018-06-13T18:45:51.478Z,25.60
2018-06-13T18:48:35.544Z,25.53
2018-06-13T18:51:04.753Z,26.70
2018-06-13T18:53:34.274Z,28.43
2018-06-13T18:56:03.482Z,32.47
2018-06-13T18:58:32.743Z,27.23
2018-06-13T19:14:18.030Z,27.40
2018-06-13T19:16:47.412Z,27.07
2018-06-13T19:19:16.663Z,27.57
2018-06-13T19:21:45.863Z,35.77
2018-06-13T19:24:15.079Z,28.63
2018-06-13T19:26:44.313Z,22.55
2018-06-13T19:29:13.546Z,22.50
2018-06-13T19:31:42.755Z,20.40
2018-06-13T19:34:11.987Z,21.53
2018-06-13T19:36:41.214Z,21.82
2018-06-13T19:39:11.009Z,22.03
2018-06-13T19:41:41.472Z,21.17
2018-06-13T19:44:10.686Z,22.63
2018-06-13T19:46:40.094Z,25.23
2018-06-13T19:49:09.320Z,21.53
2018-06-13T19:51:38.531Z,20.30
2018-06-13T19:54:12.949Z,24.17
2018-06-13T19:56:42.271Z,20.60
2018-06-13T19:59:11.518Z,24.40
2018-06-13T20:01:40.731Z,23.30
2018-06-13T20:04:15.313Z,22.77
2018-06-13T20:06:44.543Z,22.10
2018-06-13T20:09:14.533Z,22.77
2018-06-13T20:11:43.734Z,24.20
2018-06-13T20:14:18.136Z,22.60
2018-06-13T20:16:53.659Z,21.48
2018-06-13T20:19:28.243Z,20.13
2018-06-13T20:21:58.894Z,27.73
2018-06-13T20:24:28.137Z,23.50
2018-06-13T20:27:02.479Z,26.07
2018-06-13T20:29:36.995Z,23.50
2018-06-13T20:32:07.497Z,24.87
2018-06-13T20:34:36.744Z,27.23
2018-06-13T20:37:06.204Z,29.67
2018-06-13T20:39:35.425Z,28.30
2018-06-13T20:42:04.642Z,24.90
2018-06-13T20:44:33.896Z,23.80
2018-06-13T20:47:03.127Z,23.20
2018-06-13T20:49:32.390Z,26.13
2018-06-13T20:52:01.655Z,22.98
2018-06-13T20:54:30.950Z,19.83
2018-06-13T20:57:00.172Z,22.87
2018-06-13T20:59:29.479Z,20.97
2018-06-13T21:01:58.701Z,24.60
2018-06-13T21:04:27.934Z,25.23
2018-06-13T21:06:57.153Z,26.60
2018-06-13T21:09:26.471Z,23.03
2018-06-13T21:11:55.683Z,23.60
2018-06-13T21:14:24.908Z,23.77
2018-06-13T21:16:53.894Z,23.73
2018-06-13T21:19:23.125Z,26.03
2018-06-13T21:21:52.388Z,27.47
2018-06-13T21:24:21.594Z,24.40
2018-06-13T21:26:50.832Z,27.80
2018-06-13T21:29:20.058Z,21.23
2018-06-13T21:31:49.294Z,21.97
2018-06-13T21:34:18.543Z,20.20
2018-06-13T21:36:47.775Z,21.30
2018-06-13T21:39:16.999Z,21.43
2018-06-13T21:41:46.314Z,20.13
2018-06-13T21:44:15.598Z,19.07
2018-06-13T21:46:44.858Z,24.30
2018-06-13T21:49:14.096Z,20.80
2018-06-13T21:51:43.411Z,22.57
2018-06-13T21:54:13.249Z,24.70
2018-06-13T21:56:42.479Z,21.27
2018-06-13T21:59:11.707Z,21.37
2018-06-13T22:01:40.924Z,22.17
2018-06-13T22:04:10.136Z,21.27
2018-06-13T22:06:39.366Z,20.63
2018-06-13T22:09:10.496Z,18.20
2018-06-13T22:11:44.944Z,18.87
2018-06-13T22:14:14.184Z,19.20
2018-06-13T22:16:43.418Z,20.43
2018-06-13T22:19:12.777Z,20.23
2018-06-13T22:21:42.019Z,23.23
2018-06-13T22:24:11.794Z,25.20
2018-06-13T22:26:41.017Z,21.97
2018-06-13T22:29:10.275Z,22.10
2018-06-13T22:31:39.526Z,22.37
2018-06-13T22:34:08.896Z,21.63
2018-06-13T22:36:41.189Z,22.70
2018-06-13T22:39:12.215Z,22.67
2018-06-13T22:41:41.853Z,23.07
2018-06-13T22:44:11.062Z,24.23
2018-06-13T22:46:40.448Z,25.13
2018-06-13T22:49:09.619Z,24.73
2018-06-13T22:51:39.806Z,24.87
2018-06-13T22:54:09.019Z,21.93
2018-06-13T22:56:38.350Z,23.43
2018-06-13T22:59:07.567Z,23.80
2018-06-13T23:01:36.782Z,23.77
2018-06-13T23:04:06.282Z,23.33
2018-06-13T23:06:35.499Z,25.50
2018-06-13T23:09:07.030Z,22.60
2018-06-13T23:11:36.441Z,23.45
2018-06-13T23:14:05.658Z,21.47
2018-06-13T23:16:34.885Z,23.63
2018-06-13T23:19:04.098Z,22.87
2018-06-13T23:21:33.326Z,24.80
2018-06-13T23:24:02.581Z,24.77
2018-06-13T23:26:31.816Z,22.73
2018-06-13T23:29:01.037Z,28.83
2018-06-13T23:31:30.277Z,26.03
2018-06-13T23:33:59.504Z,25.73
2018-06-13T23:36:28.746Z,25.20
2018-06-13T23:38:57.949Z,26.90
2018-06-13T23:41:27.171Z,25.23
2018-06-13T23:43:56.435Z,26.27
2018-06-13T23:46:25.661Z,29.20
2018-06-13T23:48:54.903Z,31.67
2018-06-13T23:51:24.228Z,28.80
2018-06-13T23:53:53.550Z,26.37
2018-06-13T23:56:22.790Z,30.00
2018-06-13T23:58:52.172Z,29.13
